Time;durP1;ratioP1;P1;durP2;ratioP2;P2;SDS_P1;SDS_P2;PMS_P1;PMS_P2;Temp;Humidity;BMP_temperature;BMP_pressure;BME280_temperature;BME280_humidity;BME280_pressure;Samples;Min_cycle;Max_cycle;Signal;HPM_P1;HPM_P2
2022/03/31 00:01:00;;;;;;;2.00;1.90;;;;;;;3.39;83.12;100461.25;5111856;28;20040;-80
2022/03/31 00:03:26;;;;;;;2.25;2.10;;;;;;;3.34;83.06;100461.31;5077098;28;20055;-80
2022/03/31 00:05:51;;;;;;;2.38;2.10;;;;;;;3.33;83.04;100456.16;5105045;28;20027;-80
2022/03/31 00:08:19;;;;;;;2.10;1.80;;;;;;;3.20;82.79;100466.72;5130068;27;20028;-80
2022/03/31 00:10:49;;;;;;;2.25;2.05;;;;;;;3.11;82.71;100458.25;5116653;28;20027;-80
2022/03/31 00:13:26;;;;;;;2.15;2.05;;;;;;;3.12;82.94;100452.19;5120372;28;20055;-80
2022/03/31 00:15:54;;;;;;;2.30;2.10;;;;;;;3.08;82.84;100460.00;5116112;27;20028;-80
2022/03/31 00:18:19;;;;;;;1.77;1.67;;;;;;;3.13;82.35;100466.81;5102349;27;20031;-80
2022/03/31 00:20:46;;;;;;;1.90;1.80;;;;;;;3.06;82.13;100464.34;5099423;28;20243;-80
2022/03/31 00:23:11;;;;;;;2.13;1.55;;;;;;;2.87;82.66;100457.75;5108666;28;20395;-80
2022/03/31 00:25:37;;;;;;;2.00;1.90;;;;;;;2.88;82.57;100454.28;5111394;28;20039;-80
2022/03/31 00:28:05;;;;;;;3.13;2.13;;;;;;;2.79;83.14;100460.44;5112214;28;20023;-80
2022/03/31 00:30:31;;;;;;;2.03;1.92;;;;;;;2.70;83.68;100465.75;5093748;28;20231;-80
2022/03/31 00:32:57;;;;;;;2.13;2.00;;;;;;;2.77;83.64;100458.78;5098806;28;20028;-80
2022/03/31 00:35:23;;;;;;;2.83;2.63;;;;;;;2.57;84.55;100462.47;5081341;28;20039;-80
2022/03/31 00:37:48;;;;;;;2.60;2.40;;;;;;;2.69;84.05;100456.28;5096931;28;20051;-80
2022/03/31 00:40:15;;;;;;;2.28;1.98;;;;;;;2.68;84.28;100449.41;5081277;28;20080;-80
2022/03/31 00:42:43;;;;;;;1.98;1.88;;;;;;;2.65;84.37;100447.69;5098746;28;20039;-80
2022/03/31 00:45:24;;;;;;;2.00;1.90;;;;;;;2.69;84.08;100445.94;5097793;28;20073;-80
2022/03/31 00:47:49;;;;;;;2.05;1.95;;;;;;;2.59;84.45;100436.63;5116307;28;20335;-80
2022/03/31 00:50:16;;;;;;;2.70;2.20;;;;;;;2.61;84.27;100438.28;5098079;28;20050;-80
2022/03/31 00:52:43;;;;;;;2.25;2.10;;;;;;;2.58;84.60;100440.91;5108869;28;20196;-80
2022/03/31 00:55:11;;;;;;;2.10;1.90;;;;;;;2.63;84.44;100443.44;5102597;28;20350;-80
2022/03/31 00:57:37;;;;;;;2.38;2.28;;;;;;;2.58;84.61;100445.22;5111423;27;20028;-80
2022/03/31 01:00:07;;;;;;;2.70;2.50;;;;;;;2.60;84.74;100438.31;5112471;28;20393;-80
2022/03/31 01:02:55;;;;;;;2.70;2.50;;;;;;;2.61;84.44;100440.88;5091546;28;20027;-80
2022/03/31 01:05:20;;;;;;;3.25;2.95;;;;;;;2.58;84.65;100442.66;5105923;27;20386;-80
2022/03/31 01:07:46;;;;;;;4.20;3.75;;;;;;;2.54;84.88;100444.41;5102043;28;20035;-80
2022/03/31 01:10:13;;;;;;;3.25;2.95;;;;;;;2.53;84.94;100441.84;5102395;28;20019;-80
2022/03/31 01:12:39;;;;;;;4.70;3.58;;;;;;;2.58;85.22;100440.91;5119280;28;20031;-80
2022/03/31 01:15:14;;;;;;;3.80;3.50;;;;;;;2.61;85.17;100432.28;5097901;28;20020;-80
2022/03/31 01:17:42;;;;;;;3.70;3.40;;;;;;;2.59;85.25;100428.84;5119345;27;20384;-80
2022/03/31 01:20:10;;;;;;;2.55;2.35;;;;;;;2.64;85.23;100422.75;5109364;28;20323;-80
2022/03/31 01:22:36;;;;;;;2.55;2.35;;;;;;;2.54;85.40;100416.00;5118958;28;20032;-80
2022/03/31 01:25:04;;;;;;;2.65;2.10;;;;;;;2.57;85.41;100420.28;5112330;28;20140;-80
2022/03/31 01:27:30;;;;;;;2.50;2.30;;;;;;;2.58;85.45;100416.78;5124181;27;20027;-80
2022/03/31 01:29:55;;;;;;;2.38;2.17;;;;;;;2.48;85.54;100416.09;5093753;27;20425;-80
2022/03/31 01:32:22;;;;;;;2.63;2.42;;;;;;;2.40;85.91;100418.78;5101024;28;20343;-80
2022/03/31 01:34:47;;;;;;;2.38;2.28;;;;;;;2.38;85.66;100412.75;5101230;28;20169;-80
2022/03/31 01:37:13;;;;;;;2.58;2.38;;;;;;;2.34;85.96;100411.09;5118158;27;20403;-80
2022/03/31 01:39:39;;;;;;;2.30;2.20;;;;;;;2.39;85.84;100403.28;5131700;27;20036;-80
2022/03/31 01:42:05;;;;;;;2.17;2.08;;;;;;;2.37;85.65;100405.91;5101312;28;20588;-80
2022/03/31 01:44:31;;;;;;;2.67;2.50;;;;;;;2.39;85.74;100403.28;5103997;27;20386;-80
2022/03/31 01:46:57;;;;;;;2.15;2.05;;;;;;;2.33;85.52;100393.03;5101768;28;20050;-80
2022/03/31 01:49:22;;;;;;;2.03;1.92;;;;;;;2.36;85.34;100399.00;5097897;28;20382;-80
2022/03/31 01:51:47;;;;;;;2.40;2.20;;;;;;;2.31;85.49;100400.81;5101799;28;20027;-80
2022/03/31 01:54:13;;;;;;;2.35;2.20;;;;;;;2.31;85.68;100395.66;5101591;28;20074;-80
2022/03/31 01:56:42;;;;;;;2.17;1.98;;;;;;;2.27;85.58;100402.59;5096240;27;20039;-80
2022/03/31 01:59:09;;;;;;;2.40;2.15;;;;;;;2.23;85.73;100402.63;5107769;28;20032;-80
2022/03/31 02:01:34;;;;;;;1.60;1.50;;;;;;;2.28;85.61;100403.44;5099993;27;20061;-80
2022/03/31 02:03:59;;;;;;;2.33;2.13;;;;;;;2.24;85.90;100401.78;5125370;27;20028;-80
2022/03/31 02:06:25;;;;;;;2.40;2.08;;;;;;;2.24;86.10;100396.59;5101210;28;20042;-80
2022/03/31 02:08:50;;;;;;;2.38;2.13;;;;;;;2.23;86.00;100406.06;5101108;28;20043;-80
2022/03/31 02:11:16;;;;;;;2.80;2.60;;;;;;;2.15;86.53;100407.91;5100729;28;20030;-80
2022/03/31 02:13:41;;;;;;;2.50;2.40;;;;;;;2.23;86.20;100395.72;5083713;28;20315;-80
2022/03/31 02:16:06;;;;;;;2.40;2.20;;;;;;;2.34;86.02;100405.09;5083721;28;20051;-80
2022/03/31 02:18:32;;;;;;;2.70;2.50;;;;;;;2.27;86.21;100399.13;5123515;27;20042;-79
2022/03/31 02:20:57;;;;;;;3.47;2.97;;;;;;;2.27;85.93;100388.78;5118610;28;20111;-78
2022/03/31 02:23:23;;;;;;;2.63;2.53;;;;;;;2.30;86.04;100394.78;5100768;28;20023;-78
2022/03/31 02:25:48;;;;;;;3.30;3.10;;;;;;;2.33;86.00;100391.31;5083624;28;20038;-79
2022/03/31 02:28:13;;;;;;;3.25;3.05;;;;;;;2.25;85.98;100390.56;5107674;28;20315;-79
2022/03/31 02:30:40;;;;;;;3.40;3.10;;;;;;;2.24;86.00;100391.44;5102375;27;20062;-78
2022/03/31 02:33:05;;;;;;;3.75;3.40;;;;;;;2.16;86.43;100388.94;5100423;28;20091;-79
2022/03/31 02:35:31;;;;;;;3.33;3.03;;;;;;;2.12;86.43;100387.28;5092040;28;20151;-79
2022/03/31 02:37:57;;;;;;;3.25;3.05;;;;;;;2.18;86.38;100386.34;5101544;28;20289;-79
2022/03/31 02:40:22;;;;;;;2.85;2.65;;;;;;;2.02;87.04;100376.22;5101118;27;20269;-79
2022/03/31 02:42:47;;;;;;;3.78;2.80;;;;;;;2.01;87.45;100369.34;5101059;28;20333;-79
2022/03/31 02:45:13;;;;;;;4.22;3.15;;;;;;;2.02;87.49;100365.00;5094903;28;20097;-79
2022/03/31 02:47:39;;;;;;;3.67;3.45;;;;;;;2.00;87.87;100371.94;5117781;28;20043;-79
2022/03/31 02:50:06;;;;;;;3.35;3.05;;;;;;;2.04;87.85;100371.88;5119346;27;20016;-79
2022/03/31 02:55:24;;;;;;;3.20;3.00;;;;;;;2.08;87.37;100375.28;5083416;27;20036;-79
2022/03/31 02:55:28;;;;;;;3.28;2.45;;;;;;;2.08;87.42;100377.88;5107710;28;20044;-79
2022/03/31 02:58:03;;;;;;;2.92;2.67;;;;;;;2.19;87.18;100363.06;5084936;28;20431;-79
2022/03/31 03:00:34;;;;;;;3.17;2.83;;;;;;;2.16;87.28;100357.09;5113583;28;20035;-79
2022/03/31 03:03:02;;;;;;;2.72;2.50;;;;;;;2.14;87.52;100358.84;5100345;28;20354;-79
2022/03/31 03:05:27;;;;;;;3.13;2.53;;;;;;;2.03;87.99;100353.81;5083127;28;20019;-79
2022/03/31 03:07:53;;;;;;;2.70;2.20;;;;;;;2.13;87.87;100349.38;5100381;28;20042;-79
2022/03/31 03:10:19;;;;;;;2.60;2.40;;;;;;;2.10;87.95;100355.44;5100020;28;20024;-79
2022/03/31 03:12:44;;;;;;;3.25;2.13;;;;;;;2.16;87.70;100354.50;5124152;27;20035;-79
2022/03/31 03:15:11;;;;;;;2.55;1.92;;;;;;;2.16;87.81;100349.34;5081875;28;20040;-79
2022/03/31 03:17:44;;;;;;;2.20;2.00;;;;;;;2.16;88.05;100351.91;5115516;28;20346;-79
2022/03/31 03:20:14;;;;;;;3.20;2.15;;;;;;;2.12;88.14;100348.53;5095630;27;20075;-79
2022/03/31 03:22:45;;;;;;;4.43;2.33;;;;;;;2.04;88.11;100350.38;5099796;28;20027;-79
2022/03/31 03:25:11;;;;;;;2.40;2.20;;;;;;;2.08;88.10;100344.28;5099935;28;20042;-79
2022/03/31 03:27:37;;;;;;;2.65;2.28;;;;;;;2.02;88.51;100350.41;5063062;28;20066;-79
2022/03/31 03:30:03;;;;;;;3.80;2.45;;;;;;;2.05;88.47;100349.47;5079825;28;20042;-79
2022/03/31 03:32:28;;;;;;;3.53;2.78;;;;;;;2.09;88.43;100351.16;5098807;28;20103;-78
2022/03/31 03:34:53;;;;;;;2.75;2.50;;;;;;;2.09;88.16;100352.03;5132512;27;20061;-79
2022/03/31 03:37:19;;;;;;;2.65;2.40;;;;;;;2.10;88.15;100358.88;5102507;27;20031;-79
2022/03/31 03:39:44;;;;;;;3.60;2.53;;;;;;;2.13;88.13;100351.97;5106752;28;20266;-79
2022/03/31 03:42:10;;;;;;;2.88;2.45;;;;;;;2.18;88.04;100361.34;5090534;28;20035;-79
2022/03/31 03:44:35;;;;;;;3.20;2.88;;;;;;;2.21;87.75;100363.06;5096009;28;20020;-79
2022/03/31 03:47:01;;;;;;;3.45;3.15;;;;;;;2.12;88.02;100351.09;5083171;27;20039;-79
2022/03/31 03:49:26;;;;;;;4.57;3.38;;;;;;;2.13;88.06;100355.41;5103750;27;20068;-79
2022/03/31 03:51:51;;;;;;;4.75;3.45;;;;;;;2.19;88.14;100357.06;5115614;27;20334;-79
2022/03/31 03:54:17;;;;;;;3.42;3.13;;;;;;;2.21;87.97;100355.31;5096928;28;20361;-78
2022/03/31 03:56:43;;;;;;;4.22;3.65;;;;;;;2.20;87.79;100359.63;5082193;28;20288;-79
2022/03/31 03:59:09;;;;;;;5.40;3.42;;;;;;;2.29;87.69;100358.63;5099063;28;20019;-79
2022/03/31 04:01:34;;;;;;;5.32;3.60;;;;;;;2.30;87.52;100362.91;5119300;27;20476;-79
2022/03/31 04:03:59;;;;;;;4.95;3.90;;;;;;;2.36;87.15;100357.66;5075217;28;20219;-79
2022/03/31 04:06:25;;;;;;;5.10;4.25;;;;;;;2.31;87.36;100354.31;5115856;28;20090;-79
2022/03/31 04:08:51;;;;;;;7.32;4.38;;;;;;;2.23;87.84;100350.97;5079112;28;20578;-79
2022/03/31 04:11:16;;;;;;;5.13;4.65;;;;;;;2.32;87.75;100357.75;5097065;28;20039;-79
2022/03/31 04:13:42;;;;;;;5.45;4.65;;;;;;;2.32;87.78;100355.16;5100052;28;20036;-79
2022/03/31 04:16:08;;;;;;;5.35;4.90;;;;;;;2.24;88.05;100350.94;5099932;28;20023;-79
2022/03/31 04:18:33;;;;;;;6.68;4.28;;;;;;;2.29;88.41;100350.88;5116676;28;20096;-79
2022/03/31 04:21:02;;;;;;;4.65;4.25;;;;;;;2.32;88.10;100349.97;5117581;28;20038;-79
2022/03/31 04:23:28;;;;;;;5.10;4.17;;;;;;;2.27;88.33;100340.56;5099694;28;20102;-79
2022/03/31 04:25:53;;;;;;;4.20;3.58;;;;;;;2.30;88.18;100340.50;5099171;28;20035;-79
2022/03/31 04:28:19;;;;;;;6.05;4.38;;;;;;;2.33;88.28;100339.63;5116798;28;20141;-79
2022/03/31 04:30:44;;;;;;;4.70;4.30;;;;;;;2.28;88.71;100344.00;5082355;28;20042;-79
2022/03/31 04:33:09;;;;;;;4.70;4.30;;;;;;;2.28;88.74;100339.69;5082682;28;20035;-79
2022/03/31 04:35:36;;;;;;;7.28;4.60;;;;;;;2.30;88.96;100342.25;5117092;28;20088;-79
2022/03/31 04:38:02;;;;;;;6.97;3.63;;;;;;;2.19;89.17;100334.66;5082236;28;20061;-79
2022/03/31 04:40:27;;;;;;;6.03;3.33;;;;;;;2.10;89.70;100337.38;5105533;28;20032;-79
2022/03/31 04:42:53;;;;;;;3.65;3.35;;;;;;;2.08;89.85;100336.53;5101882;28;20050;-79
2022/03/31 04:45:18;;;;;;;8.77;3.60;;;;;;;2.10;89.90;100329.63;5122420;28;20335;-79
2022/03/31 04:47:44;;;;;;;4.22;3.40;;;;;;;2.07;89.75;100333.09;5092418;28;20084;-79
2022/03/31 04:50:10;;;;;;;3.42;3.13;;;;;;;2.06;90.21;100341.72;5106407;28;20040;-79
2022/03/31 04:52:35;;;;;;;4.38;3.38;;;;;;;2.08;90.17;100332.22;5074789;28;20275;-79
2022/03/31 04:55:00;;;;;;;2.88;2.60;;;;;;;2.04;90.41;100327.97;5099490;28;20081;-79
2022/03/31 04:57:26;;;;;;;3.28;2.75;;;;;;;2.06;90.61;100327.97;5116305;28;20024;-79
2022/03/31 04:59:51;;;;;;;6.75;2.70;;;;;;;2.09;90.60;100327.91;5099872;28;20051;-79
2022/03/31 05:02:18;;;;;;;5.68;2.55;;;;;;;2.10;90.65;100327.03;5098322;28;20035;-79
2022/03/31 05:04:43;;;;;;;3.55;2.60;;;;;;;2.13;90.62;100320.94;5124252;28;20039;-79
2022/03/31 05:07:09;;;;;;;5.00;2.50;;;;;;;2.08;90.68;100328.78;5099123;28;20030;-79
2022/03/31 05:09:35;;;;;;;2.83;2.50;;;;;;;2.04;90.49;100327.97;5115398;28;20035;-79
2022/03/31 05:12:00;;;;;;;5.47;2.40;;;;;;;2.13;90.55;100327.00;5097984;28;20339;-79
2022/03/31 05:14:26;;;;;;;2.50;1.92;;;;;;;2.10;90.46;100330.47;5116699;28;20042;-79
2022/03/31 05:16:52;;;;;;;2.42;2.00;;;;;;;2.19;90.19;100326.06;5116594;28;20059;-79
2022/03/31 05:19:17;;;;;;;6.18;2.30;;;;;;;2.23;90.18;100320.81;5115176;28;20031;-79
2022/03/31 05:21:43;;;;;;;2.83;1.70;;;;;;;2.35;89.95;100322.38;5098243;28;20428;-79
2022/03/31 05:24:09;;;;;;;2.15;1.95;;;;;;;2.39;89.69;100324.03;5120101;28;20221;-79
2022/03/31 05:26:35;;;;;;;2.40;1.67;;;;;;;2.44;89.20;100331.72;5116436;28;20032;-79
2022/03/31 05:29:00;;;;;;;2.63;1.60;;;;;;;2.43;88.97;100336.00;5099673;28;20226;-79
2022/03/31 05:31:26;;;;;;;2.63;1.58;;;;;;;2.42;88.70;100330.84;5115148;28;20345;-79
2022/03/31 05:33:51;;;;;;;4.65;1.67;;;;;;;2.40;88.36;100335.19;5114499;28;20066;-79
2022/03/31 05:36:16;;;;;;;1.77;1.60;;;;;;;2.37;88.33;100320.59;5092512;28;20052;-79
2022/03/31 05:38:42;;;;;;;2.78;1.40;;;;;;;2.26;88.37;100325.09;5098909;28;20032;-79
2022/03/31 05:41:07;;;;;;;3.85;1.30;;;;;;;2.32;88.30;100322.41;5101845;28;20049;-79
2022/03/31 05:43:33;;;;;;;2.88;1.15;;;;;;;2.35;88.24;100334.41;5120096;27;20054;-79
2022/03/31 05:45:58;;;;;;;2.33;1.30;;;;;;;2.41;88.08;100334.34;5100340;28;20108;-79
2022/03/31 05:48:24;;;;;;;7.10;1.90;;;;;;;2.41;88.12;100322.25;5105759;28;20058;-78
2022/03/31 05:50:49;;;;;;;5.10;1.77;;;;;;;2.38;87.69;100319.72;5064933;28;20032;-79
2022/03/31 05:53:15;;;;;;;1.77;1.40;;;;;;;2.43;87.76;100317.91;5074639;28;20203;-79
2022/03/31 05:55:41;;;;;;;2.30;1.55;;;;;;;2.43;87.87;100314.50;5111342;28;20040;-79
2022/03/31 05:58:08;;;;;;;4.50;1.50;;;;;;;2.46;87.47;100307.53;5098371;28;20036;-79
2022/03/31 06:00:33;;;;;;;4.60;1.73;;;;;;;2.51;87.67;100299.72;5079036;28;20243;-79
2022/03/31 06:02:59;;;;;;;3.40;1.50;;;;;;;2.45;87.60;100302.38;5078877;28;20031;-79
2022/03/31 06:05:24;;;;;;;6.35;1.92;;;;;;;2.47;87.46;100308.38;5078110;28;20038;-79
2022/03/31 06:07:52;;;;;;;6.25;1.73;;;;;;;2.51;87.54;100312.66;5099987;28;20201;-79
2022/03/31 06:10:19;;;;;;;1.85;1.50;;;;;;;2.55;87.09;100310.84;5076827;28;20095;-79
2022/03/31 06:12:45;;;;;;;1.58;1.48;;;;;;;2.58;87.27;100314.22;5091543;28;20086;-79
2022/03/31 06:15:10;;;;;;;3.03;2.03;;;;;;;2.64;87.09;100313.31;5075029;28;20375;-79
2022/03/31 06:17:40;;;;;;;3.35;1.98;;;;;;;2.71;86.90;100319.22;5089263;28;20043;-79
2022/03/31 06:20:07;;;;;;;2.63;1.88;;;;;;;2.78;86.90;100315.63;5077150;28;20031;-79
2022/03/31 06:22:33;;;;;;;4.03;2.55;;;;;;;2.84;86.59;100316.41;5076969;28;20075;-79
2022/03/31 06:24:58;;;;;;;5.03;3.60;;;;;;;2.86;86.18;100321.56;5095604;28;20070;-79
2022/03/31 06:27:23;;;;;;;3.65;3.20;;;;;;;2.90;86.28;100318.03;5094248;28;20047;-79
2022/03/31 06:29:49;;;;;;;4.03;3.55;;;;;;;2.94;86.15;100326.59;5093729;28;20039;-79
2022/03/31 06:32:16;;;;;;;4.60;4.00;;;;;;;2.96;86.15;100330.84;5091402;28;20058;-79
2022/03/31 06:34:42;;;;;;;6.47;4.78;;;;;;;2.99;86.08;100330.78;5091228;28;20335;-79
2022/03/31 06:37:09;;;;;;;5.25;4.85;;;;;;;3.00;86.02;100331.63;5093901;28;20055;-79
2022/03/31 06:39:34;;;;;;;4.03;3.58;;;;;;;3.03;85.70;100326.41;5092960;28;20034;-79
2022/03/31 06:42:00;;;;;;;7.20;4.63;;;;;;;3.06;85.69;100326.38;5059551;28;20051;-79
2022/03/31 06:44:26;;;;;;;5.10;4.50;;;;;;;3.10;85.57;100329.75;5076147;28;20115;-79
2022/03/31 06:46:51;;;;;;;4.75;4.15;;;;;;;3.14;85.38;100331.41;5095085;28;20046;-79
2022/03/31 06:49:18;;;;;;;4.93;3.95;;;;;;;3.16;85.14;100330.47;5078790;28;20050;-79
2022/03/31 06:51:44;;;;;;;6.15;4.65;;;;;;;3.14;85.19;100332.25;5110381;28;20032;-79
2022/03/31 06:54:10;;;;;;;9.70;4.25;;;;;;;3.18;85.28;100328.72;5096187;27;20046;-78
2022/03/31 06:56:36;;;;;;;3.83;3.40;;;;;;;3.18;85.14;100320.94;5112394;28;20063;-79
2022/03/31 06:59:02;;;;;;;6.72;3.35;;;;;;;3.19;85.16;100317.50;5116531;27;20230;-79
2022/03/31 07:01:27;;;;;;;7.05;3.20;;;;;;;3.19;85.09;100321.81;5115619;27;20076;-79
2022/03/31 07:03:54;;;;;;;5.88;3.42;;;;;;;3.20;85.12;100311.47;5113443;28;20220;-81
2022/03/31 07:06:20;;;;;;;2.83;2.50;;;;;;;3.21;85.14;100310.56;5092487;27;20031;-78
2022/03/31 07:08:46;;;;;;;2.67;2.22;;;;;;;3.22;85.15;100314.00;5113143;28;20040;-79
2022/03/31 07:11:11;;;;;;;2.55;2.30;;;;;;;3.15;85.92;100305.50;5112230;27;20054;-79
2022/03/31 07:13:37;;;;;;;6.00;2.55;;;;;;;3.17;86.23;100311.50;5098185;27;20035;-79
2022/03/31 07:16:03;;;;;;;8.05;2.55;;;;;;;3.20;86.08;100313.16;5096661;28;20035;-79
2022/03/31 07:18:29;;;;;;;5.90;2.85;;;;;;;3.17;85.95;100308.06;5099059;27;20027;-79
2022/03/31 07:20:57;;;;;;;2.40;2.20;;;;;;;3.22;86.15;100320.03;5099169;28;20072;-79
2022/03/31 07:23:23;;;;;;;2.80;2.22;;;;;;;3.21;86.13;100328.66;5110650;28;20046;-79
2022/03/31 07:25:50;;;;;;;2.47;2.28;;;;;;;3.25;85.66;100326.88;5114793;27;20031;-79
2022/03/31 07:28:15;;;;;;;4.45;2.97;;;;;;;3.26;86.12;100324.28;5095034;28;20042;-79
2022/03/31 07:30:41;;;;;;;2.47;2.28;;;;;;;3.23;86.19;100318.28;5081124;28;20027;-79
2022/03/31 07:33:08;;;;;;;2.70;2.50;;;;;;;3.21;86.16;100317.47;5078682;27;20037;-79
2022/03/31 07:35:37;;;;;;;2.45;2.35;;;;;;;3.27;85.99;100322.53;5093395;28;20075;-79
2022/03/31 07:38:04;;;;;;;2.85;2.65;;;;;;;3.29;86.10;100322.50;5117605;27;20039;-79
2022/03/31 07:40:30;;;;;;;3.22;2.75;;;;;;;3.29;86.31;100322.50;5101346;27;20032;-79
2022/03/31 07:42:57;;;;;;;5.00;3.03;;;;;;;3.30;86.22;100311.28;5107902;27;20226;-79
2022/03/31 07:45:23;;;;;;;3.00;2.80;;;;;;;3.30;86.22;100313.88;5094777;28;20040;-79
2022/03/31 07:47:49;;;;;;;4.95;3.30;;;;;;;3.32;86.50;100317.28;5098563;27;20065;-79
2022/03/31 07:50:16;;;;;;;3.30;3.00;;;;;;;3.33;86.94;100316.38;5091621;28;20044;-79
2022/03/31 07:52:43;;;;;;;5.85;3.03;;;;;;;3.29;86.82;100318.16;5114805;27;20104;-79
2022/03/31 07:55:11;;;;;;;5.63;3.20;;;;;;;3.25;86.21;100309.59;5081196;28;20028;-79
2022/03/31 07:57:38;;;;;;;3.20;2.90;;;;;;;3.29;86.28;100313.00;5095054;28;20071;-79
2022/03/31 08:00:06;;;;;;;4.80;3.15;;;;;;;3.26;86.31;100313.06;5115305;27;20028;-79
2022/03/31 08:02:31;;;;;;;6.13;2.78;;;;;;;3.29;86.14;100307.81;5108452;28;20085;-79
2022/03/31 08:04:57;;;;;;;2.75;2.55;;;;;;;3.34;86.33;100303.41;5095350;27;20038;-79
2022/03/31 08:07:22;;;;;;;4.28;2.88;;;;;;;3.35;86.30;100301.69;5081980;28;20050;-79
2022/03/31 08:09:47;;;;;;;3.50;3.20;;;;;;;3.37;85.85;100315.47;5096697;28;20526;-79
2022/03/31 08:12:13;;;;;;;4.03;3.03;;;;;;;3.36;85.97;100313.72;5097591;28;20399;-79
2022/03/31 08:14:38;;;;;;;3.00;2.80;;;;;;;3.37;86.08;100318.03;5099548;28;20102;-79
2022/03/31 08:17:04;;;;;;;3.78;2.63;;;;;;;3.40;86.04;100312.78;5099244;28;20044;-79
2022/03/31 08:19:32;;;;;;;3.75;2.72;;;;;;;3.40;85.83;100305.03;5099776;28;20039;-79
2022/03/31 08:21:59;;;;;;;3.20;2.80;;;;;;;3.42;86.21;100306.72;5115136;27;20339;-79
2022/03/31 08:24:25;;;;;;;2.70;2.50;;;;;;;3.46;86.18;100297.16;5113220;27;20081;-79
2022/03/31 08:26:50;;;;;;;4.50;2.53;;;;;;;3.48;86.03;100297.13;5094859;28;20032;-79
2022/03/31 08:29:16;;;;;;;2.78;2.53;;;;;;;3.50;86.01;100298.78;5111135;28;20039;-79
2022/03/31 08:31:42;;;;;;;6.65;2.80;;;;;;;3.56;86.13;100303.00;5111335;28;20063;-79
2022/03/31 08:34:07;;;;;;;2.97;2.70;;;;;;;3.62;86.12;100298.53;5094571;28;20070;-79
2022/03/31 08:36:33;;;;;;;3.25;2.92;;;;;;;3.69;85.89;100301.00;5078972;28;20028;-79
2022/03/31 08:38:58;;;;;;;4.38;2.90;;;;;;;3.72;85.88;100304.38;5098413;28;20043;-79
2022/03/31 08:41:26;;;;;;;3.75;3.13;;;;;;;3.69;84.64;100301.00;5094867;28;20031;-80
2022/03/31 08:43:52;;;;;;;4.63;2.70;;;;;;;3.74;84.41;100301.75;5100623;28;20115;-79
2022/03/31 08:46:18;;;;;;;2.72;2.53;;;;;;;3.77;84.22;100302.53;5090896;28;20046;-79
2022/03/31 08:48:43;;;;;;;2.67;2.47;;;;;;;3.77;84.10;100294.78;5091652;28;20114;-79
2022/03/31 08:51:09;;;;;;;3.30;3.00;;;;;;;3.79;84.19;100297.34;5094382;28;20042;-79
2022/03/31 08:53:35;;;;;;;3.22;2.92;;;;;;;3.78;84.33;100293.91;5118281;28;20329;-79
2022/03/31 08:56:03;;;;;;;3.55;2.72;;;;;;;3.80;84.20;100299.03;5093171;28;20035;-79
2022/03/31 08:58:28;;;;;;;3.05;2.38;;;;;;;3.80;83.76;100291.25;5081440;28;20050;-79
2022/03/31 09:00:54;;;;;;;4.05;2.50;;;;;;;3.74;82.85;100292.25;5101834;28;20040;-79
2022/03/31 09:03:20;;;;;;;2.65;2.45;;;;;;;3.73;83.28;100297.44;5117071;28;20043;-79
2022/03/31 09:05:52;;;;;;;2.85;2.03;;;;;;;3.81;83.06;100295.56;5102060;28;20036;-79
2022/03/31 09:08:18;;;;;;;2.90;2.70;;;;;;;3.76;82.17;100297.38;5104774;28;20031;-79
2022/03/31 09:10:53;;;;;;;5.43;2.95;;;;;;;3.76;82.21;100300.81;5097278;28;20036;-79
2022/03/31 09:13:30;;;;;;;3.10;2.90;;;;;;;3.74;81.94;100297.41;5095910;28;20024;-79
2022/03/31 09:16:00;;;;;;;2.95;2.70;;;;;;;3.75;82.71;100299.13;5098882;28;20035;-79
2022/03/31 09:18:28;;;;;;;2.95;2.75;;;;;;;3.75;82.10;100296.53;5093053;28;20043;-79
2022/03/31 09:20:57;;;;;;;3.75;2.70;;;;;;;3.83;82.05;100288.59;5104922;28;20042;-79
2022/03/31 09:23:38;;;;;;;2.90;2.70;;;;;;;3.84;82.23;100292.91;5117107;27;20297;-79
2022/03/31 09:26:08;;;;;;;2.70;2.50;;;;;;;3.88;82.20;100298.88;5096461;28;20080;-79
2022/03/31 09:28:34;;;;;;;4.05;2.63;;;;;;;3.93;82.25;100297.91;5093192;27;20242;-79
2022/03/31 09:31:00;;;;;;;4.20;2.70;;;;;;;3.94;82.00;100297.00;5096320;28;20080;-79
2022/03/31 09:33:53;;;;;;;2.60;2.40;;;;;;;3.96;82.05;100304.72;5097744;27;20031;-79
2022/03/31 09:36:24;;;;;;;2.72;2.50;;;;;;;3.98;81.94;100297.78;5104246;28;20228;-79
2022/03/31 09:38:58;;;;;;;2.45;2.35;;;;;;;4.01;82.02;100305.50;5096667;27;20075;-79
2022/03/31 09:41:27;;;;;;;2.55;2.40;;;;;;;4.02;81.72;100300.28;5109718;27;20275;-79
2022/03/31 09:43:55;;;;;;;2.35;2.25;;;;;;;4.03;81.72;100296.78;5112872;27;20277;-79
2022/03/31 09:46:25;;;;;;;2.95;2.67;;;;;;;4.02;81.62;100292.50;5106123;27;20234;-79
2022/03/31 09:48:52;;;;;;;2.80;2.60;;;;;;;4.03;81.50;100293.34;5097128;28;20119;-79
2022/03/31 09:51:20;;;;;;;2.50;2.22;;;;;;;4.01;81.24;100297.72;5081766;28;20204;-79
2022/03/31 09:53:50;;;;;;;3.00;1.92;;;;;;;3.97;80.66;100293.50;5097717;27;20031;-79
2022/03/31 09:56:21;;;;;;;2.40;2.30;;;;;;;4.01;81.11;100295.97;5115564;27;20051;-79
2022/03/31 09:58:47;;;;;;;2.70;2.50;;;;;;;4.04;80.88;100285.53;5096092;28;20033;-79
2022/03/31 10:01:14;;;;;;;2.38;2.20;;;;;;;3.95;80.43;100285.75;5097156;28;20077;-80
2022/03/31 10:03:40;;;;;;;2.55;2.40;;;;;;;3.96;80.33;100273.66;5110005;27;20153;-79
2022/03/31 10:06:06;;;;;;;2.50;2.30;;;;;;;3.97;80.34;100272.78;5120602;27;20339;-79
2022/03/31 10:08:34;;;;;;;2.22;2.10;;;;;;;4.00;80.51;100281.31;5114541;27;20047;-79
2022/03/31 10:11:00;;;;;;;2.20;2.10;;;;;;;3.98;80.13;100271.88;5093195;28;20023;-79
2022/03/31 10:13:28;;;;;;;2.58;2.38;;;;;;;4.00;80.45;100277.88;5069821;27;20038;-79
2022/03/31 10:16:03;;;;;;;2.17;1.98;;;;;;;4.09;80.25;100275.06;5103960;28;20028;-79
2022/03/31 10:18:29;;;;;;;2.47;2.28;;;;;;;4.06;79.92;100271.69;5116623;27;20046;-79
2022/03/31 10:20:57;;;;;;;1.90;1.55;;;;;;;4.11;80.10;100278.50;5095956;28;20043;-79
2022/03/31 10:26:07;;;;;;;1.92;1.55;;;;;;;4.23;80.14;100272.16;5109768;28;20066;-79
2022/03/31 10:28:32;;;;;;;2.28;2.08;;;;;;;4.28;80.02;100269.47;5113618;28;20035;-79
2022/03/31 10:31:05;;;;;;;2.53;2.33;;;;;;;4.30;79.79;100268.53;5084923;28;20296;-79
2022/03/31 10:33:42;;;;;;;2.20;2.10;;;;;;;4.33;80.07;100271.06;5092380;27;20032;-79
2022/03/31 10:36:13;;;;;;;4.35;2.50;;;;;;;4.33;80.62;100277.97;5101502;27;20062;-79
2022/03/31 10:38:54;;;;;;;2.05;1.95;;;;;;;4.36;80.12;100267.53;5110738;27;20354;-79
2022/03/31 10:41:31;;;;;;;2.00;1.90;;;;;;;4.33;79.21;100267.59;5107861;28;20012;-79
2022/03/31 10:43:58;;;;;;;1.98;1.80;;;;;;;4.36;78.96;100270.97;5095070;28;20308;-79
2022/03/31 10:46:25;;;;;;;2.47;2.00;;;;;;;4.37;79.08;100264.91;5108785;27;20217;-79
2022/03/31 10:48:58;;;;;;;2.13;1.90;;;;;;;4.37;79.70;100264.06;5109216;27;20211;-79
2022/03/31 10:51:34;;;;;;;2.13;2.03;;;;;;;4.43;79.82;100262.16;5107190;28;20108;-79
2022/03/31 10:54:01;;;;;;;2.40;2.20;;;;;;;4.45;79.28;100258.69;5112581;28;20382;-79
2022/03/31 10:56:28;;;;;;;3.63;1.83;;;;;;;4.47;78.97;100255.16;5113017;27;20031;-79
2022/03/31 10:58:56;;;;;;;2.35;2.10;;;;;;;4.49;79.09;100252.53;5112071;28;20122;-79
2022/03/31 11:01:25;;;;;;;2.33;2.13;;;;;;;4.52;79.02;100255.06;5094260;27;20023;-79
2022/03/31 11:03:51;;;;;;;5.50;2.30;;;;;;;4.53;78.72;100247.25;5095489;27;20054;-79
2022/03/31 11:06:18;;;;;;;2.88;2.40;;;;;;;4.57;78.77;100250.59;5112411;28;20362;-79
2022/03/31 11:08:48;;;;;;;3.50;2.25;;;;;;;4.60;78.11;100253.09;5116080;28;20283;-79
2022/03/31 11:11:22;;;;;;;3.92;2.33;;;;;;;4.55;77.71;100248.03;5083877;28;20216;-79
2022/03/31 11:13:48;;;;;;;2.10;2.00;;;;;;;4.60;78.03;100243.59;5108737;28;20289;-79
2022/03/31 11:16:16;;;;;;;2.58;2.38;;;;;;;4.62;78.25;100246.16;5095553;27;20098;-79
2022/03/31 11:18:51;;;;;;;4.45;2.15;;;;;;;4.63;77.80;100247.00;5091442;28;20079;-79
2022/03/31 11:21:16;;;;;;;2.40;2.20;;;;;;;4.64;77.54;100244.38;5105992;28;20034;-79
2022/03/31 11:23:47;;;;;;;2.75;2.10;;;;;;;4.69;77.81;100239.91;5096118;28;20043;-79
2022/03/31 11:26:26;;;;;;;2.40;2.20;;;;;;;4.71;77.77;100245.03;5081840;28;20341;-79
2022/03/31 11:28:52;;;;;;;2.50;1.92;;;;;;;4.70;77.04;100232.97;5108222;27;20096;-79
2022/03/31 11:31:18;;;;;;;2.08;1.95;;;;;;;4.68;76.86;100230.44;5088360;28;20046;-79
2022/03/31 11:33:44;;;;;;;2.47;2.13;;;;;;;4.73;76.98;100225.09;5094002;28;20077;-79
2022/03/31 11:36:10;;;;;;;5.07;2.15;;;;;;;4.73;77.23;100230.28;5110713;27;20040;-79